createdAt,value
2022-08-17T00:00:43.193Z,69.99
2022-08-17T00:01:22.532Z,70.39
2022-08-17T00:01:58.478Z,70.09
2022-08-17T00:02:33.738Z,70.42
2022-08-17T00:03:19.123Z,70.37
2022-08-17T00:03:52.666Z,70.46
2022-08-17T00:04:24.863Z,70.06
2022-08-17T00:04:59.883Z,70.29
2022-08-17T00:05:34.795Z,70.48
2022-08-17T00:06:13.118Z,70.85
2022-08-17T00:06:45.416Z,70.70
2022-08-17T00:07:18.316Z,70.37
2022-08-17T00:07:50.699Z,70.25
2022-08-17T00:08:28.231Z,70.54
2022-08-17T00:09:03.279Z,70.60
2022-08-17T00:09:35.513Z,70.65
2022-08-17T00:10:10.993Z,70.23
2022-08-17T00:10:45.478Z,70.29
2022-08-17T00:11:22.849Z,70.58
2022-08-17T00:12:40.867Z,70.63
2022-08-17T00:12:49.857Z,70.77
2022-08-17T00:13:29.628Z,70.47
2022-08-17T00:14:05.091Z,70.46
2022-08-17T00:14:37.483Z,70.79
2022-08-17T00:15:10.876Z,70.70
2022-08-17T00:15:45.851Z,70.99
2022-08-17T00:16:21.280Z,70.82
2022-08-17T00:17:16.044Z,71.26
2022-08-17T00:17:50.631Z,70.95
2022-08-17T00:19:00.997Z,70.61
2022-08-17T00:19:23.045Z,70.77
2022-08-17T00:19:55.206Z,70.93
2022-08-17T00:20:30.606Z,71.28
2022-08-17T00:21:12.203Z,71.18
2022-08-17T00:22:32.890Z,71.16
2022-08-17T00:22:40.062Z,71.38
2022-08-17T00:23:17.033Z,70.97
2022-08-17T00:23:49.936Z,71.38
2022-08-17T00:24:22.280Z,71.41
2022-08-17T00:24:57.069Z,70.90
2022-08-17T00:25:29.258Z,70.95
2022-08-17T00:26:04.311Z,70.86
2022-08-17T00:26:43.465Z,71.28
2022-08-17T00:27:17.853Z,71.17
2022-08-17T00:27:55.152Z,71.05
2022-08-17T00:28:31.088Z,71.68
2022-08-17T00:29:06.554Z,71.53
2022-08-17T00:29:42.340Z,71.41
2022-08-17T00:30:14.901Z,71.73
2022-08-17T00:30:52.780Z,71.41
2022-08-17T00:31:28.535Z,71.31
2022-08-17T00:33:15.072Z,71.44
2022-08-17T00:33:15.945Z,71.88
2022-08-17T00:33:49.514Z,71.88
2022-08-17T00:34:21.807Z,72.13
2022-08-17T00:34:53.914Z,71.79
2022-08-17T00:35:27.899Z,71.67
2022-08-17T00:36:06.066Z,71.96
2022-08-17T00:36:38.205Z,71.82
2022-08-17T00:37:10.391Z,72.02
2022-08-17T00:37:45.246Z,71.82
2022-08-17T00:38:17.867Z,72.10
2022-08-17T00:38:50.508Z,71.84
2022-08-17T00:39:25.324Z,71.81
2022-08-17T00:39:57.686Z,72.11
2022-08-17T00:40:40.072Z,71.89
2022-08-17T00:41:21.735Z,71.73
2022-08-17T00:41:53.915Z,72.22
2022-08-17T00:42:30.821Z,71.88
2022-08-17T00:43:15.276Z,71.89
2022-08-17T00:43:52.672Z,72.00
2022-08-17T00:44:24.834Z,72.03
2022-08-17T00:45:04.582Z,72.19
2022-08-17T00:45:39.355Z,72.33
2022-08-17T00:46:15.257Z,72.03
2022-08-17T00:46:48.089Z,71.99
2022-08-17T00:47:22.919Z,72.14
2022-08-17T00:47:55.122Z,72.01
2022-08-17T00:48:30.123Z,72.24
2022-08-17T00:49:06.354Z,72.15
2022-08-17T00:49:38.533Z,72.24
2022-08-17T00:50:13.967Z,72.32
2022-08-17T00:50:55.947Z,72.13
2022-08-17T00:51:36.296Z,72.34
2022-08-17T00:52:16.688Z,71.93
2022-08-17T00:52:52.448Z,72.25
2022-08-17T00:53:25.735Z,72.38
2022-08-17T00:54:05.680Z,72.31
2022-08-17T00:54:42.565Z,72.69
2022-08-17T00:55:15.143Z,72.29
2022-08-17T00:55:50.324Z,72.70
2022-08-17T00:56:28.520Z,72.19
2022-08-17T00:57:05.185Z,72.29
2022-08-17T00:57:45.405Z,72.73
2022-08-17T00:58:36.235Z,72.66
2022-08-17T00:59:14.424Z,72.78
2022-08-17T01:00:02.477Z,72.56
2022-08-17T01:00:43.643Z,72.92
2022-08-17T01:01:21.615Z,72.70
2022-08-17T01:01:54.932Z,72.96
2022-08-17T01:02:34.326Z,73.01
2022-08-17T01:03:25.360Z,72.90
2022-08-17T01:04:00.357Z,72.95
2022-08-17T01:04:33.640Z,73.07
2022-08-17T01:05:07.930Z,72.79
2022-08-17T01:05:44.421Z,72.76
2022-08-17T01:06:17.956Z,72.91
2022-08-17T01:06:51.294Z,72.63
2022-08-17T01:07:24.991Z,72.67
2022-08-17T01:08:01.521Z,72.54
2022-08-17T01:08:34.491Z,72.64
2022-08-17T01:09:08.759Z,73.00
2022-08-17T01:09:44.677Z,72.89
2022-08-17T01:10:59.083Z,72.63
2022-08-17T01:11:15.530Z,73.06
2022-08-17T01:11:52.427Z,73.21
2022-08-17T01:12:24.991Z,73.22
2022-08-17T01:12:59.810Z,73.11
2022-08-17T01:13:41.064Z,73.31
2022-08-17T01:14:16.265Z,73.91
2022-08-17T01:14:48.674Z,73.97
2022-08-17T01:15:20.946Z,73.78
2022-08-17T01:16:00.203Z,73.91
2022-08-17T01:16:32.872Z,73.93
2022-08-17T01:17:07.764Z,73.91
2022-08-17T01:17:40.620Z,73.71
2022-08-17T01:18:13.792Z,74.09
2022-08-17T01:18:52.181Z,73.96
2022-08-17T01:19:28.844Z,74.15
2022-08-17T01:20:01.063Z,73.64
2022-08-17T01:20:43.067Z,73.71
2022-08-17T01:21:27.885Z,73.58
2022-08-17T01:22:05.166Z,73.83
2022-08-17T01:22:42.670Z,73.71
2022-08-17T01:23:20.593Z,73.83
2022-08-17T01:23:53.250Z,74.06
2022-08-17T01:24:25.733Z,73.46
2022-08-17T01:25:02.530Z,73.63
2022-08-17T01:25:35.404Z,73.73
2022-08-17T01:26:07.731Z,73.38
2022-08-17T01:26:44.874Z,72.92
2022-08-17T01:27:18.558Z,72.91
2022-08-17T01:27:52.911Z,73.39
2022-08-17T01:28:33.466Z,73.18
2022-08-17T01:29:24.534Z,73.61
2022-08-17T01:30:01.937Z,73.13
2022-08-17T01:30:56.741Z,73.33
2022-08-17T01:31:35.265Z,73.58
2022-08-17T01:32:08.745Z,73.75
2022-08-17T01:32:41.528Z,73.42
2022-08-17T01:33:16.327Z,73.39
2022-08-17T01:33:48.605Z,73.20
2022-08-17T01:34:21.756Z,73.32
2022-08-17T01:34:58.295Z,72.97
2022-08-17T01:35:30.670Z,73.34
2022-08-17T01:36:03.723Z,72.94
2022-08-17T01:36:39.370Z,72.93
2022-08-17T01:37:13.585Z,73.29
2022-08-17T01:37:48.387Z,72.91
2022-08-17T01:38:27.001Z,73.29
2022-08-17T01:39:00.250Z,73.55
2022-08-17T01:39:35.005Z,73.08
2022-08-17T01:40:17.347Z,73.08
2022-08-17T01:40:57.442Z,73.45
2022-08-17T01:41:29.907Z,73.43
2022-08-17T01:42:12.079Z,73.56
2022-08-17T01:42:51.856Z,73.19
2022-08-17T01:43:31.334Z,73.26
2022-08-17T01:44:06.851Z,73.65
2022-08-17T01:44:39.448Z,73.54
2022-08-17T01:45:19.745Z,73.66
2022-08-17T01:46:03.406Z,73.85
2022-08-17T01:46:40.130Z,74.06
2022-08-17T01:47:12.447Z,73.58
2022-08-17T01:47:44.927Z,73.61
2022-08-17T01:48:20.587Z,73.58
2022-08-17T01:48:53.508Z,73.46
2022-08-17T01:49:25.641Z,73.38
2022-08-17T01:50:00.407Z,73.29
2022-08-17T01:50:35.109Z,73.24
2022-08-17T01:51:07.802Z,73.29
2022-08-17T01:51:43.183Z,73.09
2022-08-17T01:52:16.204Z,73.11
2022-08-17T01:52:56.166Z,73.20
2022-08-17T01:53:36.703Z,73.27
2022-08-17T01:54:13.040Z,73.65
2022-08-17T01:54:47.575Z,73.33
2022-08-17T01:55:27.828Z,73.44
2022-08-17T01:56:04.407Z,73.33
2022-08-17T01:56:41.345Z,73.52
2022-08-17T01:57:16.787Z,73.56
2022-08-17T01:57:48.928Z,73.34
2022-08-17T01:58:21.917Z,73.31
2022-08-17T01:58:56.717Z,73.49
2022-08-17T01:59:28.959Z,73.09
2022-08-17T02:00:01.546Z,73.33
2022-08-17T02:00:59.492Z,73.12
2022-08-17T02:01:31.690Z,73.51
2022-08-17T02:02:07.676Z,73.49
2022-08-17T02:02:40.163Z,73.80
2022-08-17T02:03:13.120Z,73.33
2022-08-17T02:03:53.180Z,73.80
2022-08-17T02:04:34.836Z,73.67
2022-08-17T02:05:08.422Z,73.42
2022-08-17T02:05:40.981Z,73.84
2022-08-17T02:06:27.852Z,73.70
2022-08-17T02:07:00.589Z,73.60
2022-08-17T02:07:59.538Z,73.80
2022-08-17T02:08:38.740Z,73.75
2022-08-17T02:09:16.876Z,73.85
2022-08-17T02:09:52.805Z,73.82
2022-08-17T02:10:25.099Z,74.03
2022-08-17T02:11:12.039Z,73.54
2022-08-17T02:11:46.265Z,73.64
2022-08-17T02:12:38.814Z,73.96
2022-08-17T02:13:13.822Z,74.10
2022-08-17T02:13:48.694Z,73.74
2022-08-17T02:14:33.026Z,74.10
2022-08-17T02:15:07.155Z,73.67
2022-08-17T02:15:42.025Z,73.60
2022-08-17T02:16:14.741Z,73.59
2022-08-17T02:16:47.015Z,73.73
2022-08-17T02:17:21.842Z,73.63
2022-08-17T02:17:54.845Z,73.57
2022-08-17T02:18:28.110Z,73.88
2022-08-17T02:19:03.707Z,73.79
2022-08-17T02:19:35.914Z,73.96
2022-08-17T02:20:09.838Z,73.95
2022-08-17T02:20:45.134Z,73.67
2022-08-17T02:21:17.414Z,73.72
2022-08-17T02:21:51.691Z,73.70
2022-08-17T02:22:26.194Z,73.63
2022-08-17T02:23:03.781Z,73.86
2022-08-17T02:23:45.123Z,73.89
2022-08-17T02:24:58.641Z,74.18
2022-08-17T02:25:20.762Z,74.23
2022-08-17T02:25:59.155Z,74.12
2022-08-17T02:26:31.374Z,74.34
2022-08-17T02:27:06.549Z,74.41
2022-08-17T02:27:39.727Z,74.41
2022-08-17T02:28:12.494Z,74.02
2022-08-17T02:28:47.218Z,74.05
2022-08-17T02:29:19.994Z,74.52
2022-08-17T02:29:52.193Z,73.99
2022-08-17T02:30:30.931Z,74.09
2022-08-17T02:31:19.553Z,74.18
2022-08-17T02:31:51.671Z,74.51
2022-08-17T02:32:29.515Z,74.10
2022-08-17T02:33:04.207Z,74.25
2022-08-17T02:33:43.510Z,74.30
2022-08-17T02:34:18.731Z,74.38
2022-08-17T02:34:51.247Z,74.13
2022-08-17T02:35:23.790Z,73.99
2022-08-17T02:35:58.581Z,74.46
2022-08-17T02:36:30.703Z,74.17
2022-08-17T02:37:02.840Z,74.35
2022-08-17T02:37:38.208Z,73.90
2022-08-17T02:38:10.485Z,73.89
2022-08-17T02:38:45.206Z,74.21
2022-08-17T02:39:20.036Z,74.26
2022-08-17T02:39:52.482Z,73.74
2022-08-17T02:40:36.259Z,74.07
2022-08-17T02:41:13.212Z,74.17
2022-08-17T02:41:45.759Z,73.88
2022-08-17T02:42:18.095Z,74.08
2022-08-17T02:42:52.947Z,73.87
2022-08-17T02:43:25.275Z,73.77
2022-08-17T02:43:57.495Z,73.77
2022-08-17T02:44:38.678Z,73.85
2022-08-17T02:45:15.671Z,73.87
2022-08-17T02:45:47.984Z,73.91
2022-08-17T02:46:20.280Z,74.30
2022-08-17T02:46:55.080Z,73.86
2022-08-17T02:47:28.066Z,73.85
2022-08-17T02:48:00.244Z,74.03
2022-08-17T02:48:34.955Z,74.06
2022-08-17T02:49:07.077Z,73.89
2022-08-17T02:49:39.203Z,74.09
2022-08-17T02:50:17.392Z,74.04
2022-08-17T02:50:49.644Z,73.75
2022-08-17T02:51:22.112Z,74.20
2022-08-17T02:51:56.971Z,74.08
2022-08-17T02:52:43.191Z,73.78
2022-08-17T02:53:16.057Z,74.11
2022-08-17T02:54:05.327Z,74.21
2022-08-17T02:54:46.210Z,74.46
2022-08-17T02:55:23.647Z,74.34
2022-08-17T02:55:56.005Z,74.07
2022-08-17T02:56:28.587Z,74.39
2022-08-17T02:57:03.455Z,74.29
2022-08-17T02:57:37.207Z,74.47
2022-08-17T02:58:10.913Z,74.06
2022-08-17T02:58:46.431Z,74.63
2022-08-17T02:59:18.596Z,74.42
2022-08-17T02:59:50.806Z,74.59
2022-08-17T03:00:28.951Z,74.66
2022-08-17T03:01:01.259Z,74.56
2022-08-17T03:01:33.414Z,74.21
2022-08-17T03:02:10.610Z,74.39
2022-08-17T03:02:46.284Z,74.47
2022-08-17T03:03:19.128Z,74.40
2022-08-17T03:03:53.957Z,74.55
2022-08-17T03:04:26.139Z,74.72
2022-08-17T03:04:58.457Z,74.91
2022-08-17T03:05:35.605Z,74.83
2022-08-17T03:06:08.711Z,74.30
2022-08-17T03:06:40.872Z,74.37
2022-08-17T03:07:16.289Z,74.65
2022-08-17T03:07:49.022Z,74.82
2022-08-17T03:08:21.210Z,74.83
2022-08-17T03:08:58.625Z,74.37
2022-08-17T03:09:30.853Z,74.60
2022-08-17T03:10:03.170Z,74.33
2022-08-17T03:10:37.912Z,74.57
2022-08-17T03:11:10.537Z,74.58
2022-08-17T03:11:42.762Z,74.51
2022-08-17T03:12:18.168Z,74.64
2022-08-17T03:12:51.670Z,74.43
2022-08-17T03:13:24.283Z,74.65
2022-08-17T03:13:59.327Z,74.76
2022-08-17T03:14:32.343Z,74.35
2022-08-17T03:15:06.863Z,74.72
2022-08-17T03:15:43.858Z,74.94
2022-08-17T03:16:16.762Z,74.90
2022-08-17T03:16:48.892Z,74.98
2022-08-17T03:17:23.803Z,74.71
2022-08-17T03:17:56.911Z,74.89
2022-08-17T03:18:29.331Z,74.76
2022-08-17T03:19:04.097Z,74.59
2022-08-17T03:19:36.262Z,74.65
2022-08-17T03:20:12.940Z,74.51
2022-08-17T03:20:47.780Z,74.46
2022-08-17T03:21:19.933Z,74.41
2022-08-17T03:21:55.108Z,74.53
2022-08-17T03:22:36.085Z,75.08
2022-08-17T03:23:10.538Z,74.74
2022-08-17T03:23:43.205Z,74.59
2022-08-17T03:24:20.476Z,74.67
2022-08-17T03:25:00.920Z,74.90
2022-08-17T03:25:35.525Z,74.88
2022-08-17T03:26:15.304Z,74.83
2022-08-17T03:26:47.776Z,74.67
2022-08-17T03:27:19.941Z,74.67
2022-08-17T03:27:52.657Z,74.26
2022-08-17T03:28:28.323Z,74.39
2022-08-17T03:29:00.462Z,74.67
2022-08-17T03:29:32.646Z,74.71
2022-08-17T03:30:09.298Z,74.57
2022-08-17T03:30:41.952Z,74.83
2022-08-17T03:31:18.474Z,74.73
2022-08-17T03:31:50.882Z,74.73
2022-08-17T03:32:23.330Z,74.64
2022-08-17T03:32:58.356Z,74.23
2022-08-17T03:33:33.192Z,74.53
2022-08-17T03:34:05.363Z,74.29
2022-08-17T03:34:37.508Z,74.68
2022-08-17T03:35:10.423Z,74.44
2022-08-17T03:35:48.094Z,74.66
2022-08-17T03:36:22.853Z,74.65
2022-08-17T03:36:55.373Z,74.41
2022-08-17T03:37:27.584Z,74.60
2022-08-17T03:38:02.745Z,74.52
2022-08-17T03:38:38.934Z,74.73
2022-08-17T03:39:14.364Z,74.56
2022-08-17T03:39:49.420Z,74.70
2022-08-17T03:40:57.765Z,74.39
2022-08-17T03:41:16.956Z,74.92
2022-08-17T03:41:49.115Z,74.70
2022-08-17T03:42:32.123Z,74.73
2022-08-17T03:43:09.640Z,74.72
2022-08-17T03:43:41.848Z,74.89
2022-08-17T03:44:14.164Z,74.51
2022-08-17T03:44:51.628Z,74.43
2022-08-17T03:45:44.051Z,74.84
2022-08-17T03:46:35.113Z,74.52
2022-08-17T03:47:34.178Z,75.07
2022-08-17T03:48:21.497Z,74.70
2022-08-17T03:49:08.792Z,75.08
2022-08-17T03:49:55.951Z,75.02
2022-08-17T03:50:43.065Z,74.62
2022-08-17T03:51:35.804Z,74.72
2022-08-17T03:52:22.996Z,74.64
2022-08-17T03:53:10.578Z,74.56
2022-08-17T03:54:04.434Z,74.94
2022-08-17T03:54:55.134Z,74.78
2022-08-17T03:55:44.992Z,75.12
2022-08-17T03:56:32.179Z,74.90
2022-08-17T03:57:09.321Z,74.81
2022-08-17T03:57:41.452Z,75.01
2022-08-17T03:58:13.651Z,74.65
2022-08-17T03:58:49.632Z,74.46
2022-08-17T03:59:23.363Z,74.36
2022-08-17T04:00:01.199Z,74.54
2022-08-17T04:00:35.780Z,74.36
2022-08-17T04:01:12.231Z,74.34
2022-08-17T04:01:47.897Z,74.68
2022-08-17T04:02:24.246Z,74.58
2022-08-17T04:02:56.579Z,74.12
2022-08-17T04:03:31.479Z,74.25
2022-08-17T04:04:04.256Z,73.88
2022-08-17T04:04:37.482Z,74.21
2022-08-17T04:05:12.645Z,74.08
2022-08-17T04:05:45.422Z,74.26
2022-08-17T04:06:17.633Z,74.04
2022-08-17T04:06:52.435Z,73.81
2022-08-17T04:07:27.703Z,73.89
2022-08-17T04:07:59.855Z,73.88
2022-08-17T04:08:32.079Z,74.12
2022-08-17T04:09:07.026Z,73.94
2022-08-17T04:09:39.306Z,73.88
2022-08-17T04:10:11.600Z,74.04
2022-08-17T04:10:49.383Z,74.17
2022-08-17T04:11:21.598Z,73.89
2022-08-17T04:11:54.525Z,74.27
2022-08-17T04:12:44.971Z,73.73
2022-08-17T04:13:24.710Z,73.85
2022-08-17T04:13:57.833Z,74.20
2022-08-17T04:14:39.340Z,73.90
2022-08-17T04:15:26.674Z,74.07
2022-08-17T04:16:00.092Z,74.12
2022-08-17T04:16:36.173Z,74.07
2022-08-17T04:17:08.394Z,74.19
2022-08-17T04:17:41.104Z,73.83
2022-08-17T04:18:15.914Z,73.88
2022-08-17T04:18:48.079Z,73.58
2022-08-17T04:19:20.258Z,73.70
2022-08-17T04:19:55.881Z,73.70
2022-08-17T04:20:28.946Z,73.79
2022-08-17T04:21:01.250Z,74.25
2022-08-17T04:21:36.452Z,73.87
2022-08-17T04:22:08.695Z,74.21
2022-08-17T04:22:55.096Z,74.32
2022-08-17T04:23:34.073Z,74.59
2022-08-17T04:24:06.753Z,74.43
2022-08-17T04:24:38.950Z,74.57
2022-08-17T04:25:19.324Z,74.10
2022-08-17T04:25:54.173Z,74.64
2022-08-17T04:26:53.748Z,74.69
2022-08-17T04:27:21.504Z,74.30
2022-08-17T04:27:53.740Z,74.04
2022-08-17T04:28:26.108Z,74.11
2022-08-17T04:29:01.423Z,74.45
2022-08-17T04:29:54.824Z,74.30
2022-08-17T04:30:30.262Z,74.04
2022-08-17T04:31:02.470Z,74.36
2022-08-17T04:31:37.255Z,74.18
2022-08-17T04:32:09.414Z,74.48
2022-08-17T04:33:03.988Z,74.36
2022-08-17T04:33:42.626Z,74.59
2022-08-17T04:34:14.910Z,74.34
2022-08-17T04:34:53.132Z,74.47
2022-08-17T04:35:30.819Z,74.01
2022-08-17T04:36:06.474Z,74.50
2022-08-17T04:36:41.401Z,74.26
2022-08-17T04:37:22.514Z,73.94
2022-08-17T04:37:54.715Z,74.48
2022-08-17T04:38:31.509Z,74.03
2022-08-17T04:39:04.495Z,74.24
2022-08-17T04:39:39.287Z,74.21
2022-08-17T04:40:27.583Z,74.34
2022-08-17T04:41:18.209Z,74.17
2022-08-17T04:42:05.371Z,73.94
2022-08-17T04:42:37.511Z,74.55
2022-08-17T04:43:11.970Z,73.81
2022-08-17T04:43:48.476Z,73.89
2022-08-17T04:44:37.125Z,73.87
2022-08-17T04:45:11.030Z,73.82
2022-08-17T04:45:55.650Z,73.97
2022-08-17T04:46:32.946Z,73.93
2022-08-17T04:47:07.997Z,73.77
2022-08-17T04:47:42.904Z,73.51
2022-08-17T04:48:15.200Z,73.41
2022-08-17T04:48:52.377Z,73.54
2022-08-17T04:49:24.665Z,73.71
2022-08-17T04:49:56.901Z,73.60
2022-08-17T04:50:31.743Z,73.51
2022-08-17T04:51:07.043Z,73.48
2022-08-17T04:51:45.500Z,73.23
2022-08-17T04:52:42.992Z,73.47
2022-08-17T04:53:17.493Z,73.60
2022-08-17T04:53:55.009Z,73.52
2022-08-17T04:54:27.793Z,73.31
2022-08-17T04:55:03.407Z,73.38
2022-08-17T04:55:38.790Z,73.23
2022-08-17T04:56:16.908Z,73.44
2022-08-17T04:56:53.652Z,73.33
2022-08-17T04:57:25.883Z,73.36
2022-08-17T04:57:58.143Z,73.44
2022-08-17T04:58:30.349Z,73.12
2022-08-17T04:59:07.180Z,72.90
2022-08-17T04:59:39.330Z,73.24
2022-08-17T05:00:12.663Z,73.00
2022-08-17T05:00:47.536Z,72.95
2022-08-17T05:01:24.050Z,73.28
2022-08-17T05:01:59.227Z,73.05
2022-08-17T05:02:32.217Z,72.77
2022-08-17T05:03:05.001Z,72.91
2022-08-17T05:03:37.190Z,72.98
2022-08-17T05:04:33.099Z,73.01
2022-08-17T05:05:07.544Z,73.11
2022-08-17T05:05:44.735Z,72.91
2022-08-17T05:06:23.178Z,73.47
2022-08-17T05:06:55.835Z,72.90
2022-08-17T05:07:31.444Z,73.31
2022-08-17T05:08:08.882Z,73.29
2022-08-17T05:08:41.524Z,73.31
2022-08-17T05:09:17.536Z,73.12
2022-08-17T05:09:49.954Z,73.19
2022-08-17T05:10:22.488Z,72.88
2022-08-17T05:10:57.698Z,72.67
2022-08-17T05:11:32.632Z,72.60
2022-08-17T05:12:08.077Z,72.93
2022-08-17T05:12:40.292Z,73.02
2022-08-17T05:13:15.680Z,73.13
2022-08-17T05:13:52.494Z,72.85
2022-08-17T05:14:33.288Z,72.80
2022-08-17T05:15:12.466Z,73.29
2022-08-17T05:15:48.881Z,73.01
2022-08-17T05:16:22.670Z,73.35
2022-08-17T05:16:54.908Z,72.77
2022-08-17T05:17:29.601Z,73.02
2022-08-17T05:18:02.313Z,72.81
2022-08-17T05:18:34.874Z,72.82
2022-08-17T05:19:09.761Z,73.00
2022-08-17T05:19:41.952Z,73.06
2022-08-17T05:20:14.137Z,72.84
2022-08-17T05:20:46.848Z,72.67
2022-08-17T05:21:22.344Z,72.61
2022-08-17T05:21:54.536Z,72.38
2022-08-17T05:22:26.908Z,72.49
2022-08-17T05:23:07.188Z,72.64
2022-08-17T05:23:42.439Z,72.80
2022-08-17T05:24:42.477Z,72.87
2022-08-17T05:25:10.350Z,73.11
2022-08-17T05:25:45.686Z,72.83
2022-08-17T05:26:26.839Z,72.53
2022-08-17T05:27:06.233Z,72.62
2022-08-17T05:27:41.610Z,72.75
2022-08-17T05:28:16.175Z,72.84
2022-08-17T05:28:48.859Z,72.61
2022-08-17T05:29:33.573Z,72.74
2022-08-17T05:30:08.952Z,72.51
2022-08-17T05:30:42.695Z,72.23
2022-08-17T05:31:17.581Z,72.11
2022-08-17T05:31:49.708Z,72.29
2022-08-17T05:32:37.821Z,72.28
2022-08-17T05:33:16.993Z,72.06
2022-08-17T05:33:49.726Z,72.61
2022-08-17T05:34:24.601Z,72.12
2022-08-17T05:35:00.053Z,72.08
2022-08-17T05:35:34.806Z,72.47
2022-08-17T05:36:11.742Z,72.35
2022-08-17T05:37:03.999Z,72.19
2022-08-17T05:37:39.171Z,71.86
2022-08-17T05:38:11.797Z,71.88
2022-08-17T05:38:46.629Z,71.80
2022-08-17T05:39:18.846Z,71.91
2022-08-17T05:39:51.060Z,71.79
2022-08-17T05:40:25.332Z,71.84
2022-08-17T05:41:01.362Z,71.69
2022-08-17T05:41:33.532Z,71.73
2022-08-17T05:42:09.358Z,71.44
2022-08-17T05:42:44.591Z,71.30
2022-08-17T05:43:19.858Z,71.22
2022-08-17T05:43:56.203Z,71.06
2022-08-17T05:44:31.319Z,71.04
2022-08-17T05:45:03.820Z,71.11
2022-08-17T05:45:55.809Z,70.80
2022-08-17T05:46:38.650Z,71.09
2022-08-17T05:47:10.846Z,70.93
2022-08-17T05:47:44.707Z,70.94
2022-08-17T05:48:19.518Z,71.16
2022-08-17T05:48:56.238Z,70.72
2022-08-17T05:49:31.852Z,70.62
2022-08-17T05:50:09.767Z,70.95
2022-08-17T05:50:51.546Z,70.64
2022-08-17T05:51:41.987Z,70.93
2022-08-17T05:52:21.169Z,70.90
2022-08-17T05:52:59.337Z,70.92
2022-08-17T05:53:44.319Z,70.83
2022-08-17T05:54:29.825Z,70.52
2022-08-17T05:55:17.017Z,70.51
2022-08-17T05:55:55.720Z,70.45
2022-08-17T05:56:54.297Z,70.67
2022-08-17T05:57:44.806Z,70.69
2022-08-17T05:58:33.555Z,70.48
2022-08-17T05:59:14.430Z,70.42
2022-08-17T05:59:57.758Z,70.17
2022-08-17T06:00:44.534Z,70.18
2022-08-17T06:01:30.159Z,70.16
2022-08-17T06:02:10.975Z,70.18
2022-08-17T06:03:01.040Z,70.18
2022-08-17T06:03:49.803Z,70.36
2022-08-17T06:04:34.563Z,70.36
2022-08-17T06:05:17.060Z,70.56
2022-08-17T06:06:09.225Z,70.47
2022-08-17T06:06:46.189Z,70.26
2022-08-17T06:07:21.834Z,70.44
2022-08-17T06:08:05.339Z,69.88
2022-08-17T06:08:51.623Z,69.86
2022-08-17T06:09:41.298Z,70.10
2022-08-17T06:10:24.806Z,69.63
2022-08-17T06:11:02.911Z,69.92
2022-08-17T06:11:53.329Z,69.41
2022-08-17T06:12:54.887Z,69.53
2022-08-17T06:13:45.909Z,69.26
2022-08-17T06:14:55.973Z,69.38
2022-08-17T06:15:36.707Z,69.07
2022-08-17T06:16:28.172Z,69.29
2022-08-17T06:17:10.706Z,69.27
2022-08-17T06:17:46.034Z,69.24
2022-08-17T06:18:21.556Z,68.97
2022-08-17T06:19:02.412Z,69.44
2022-08-17T06:19:44.108Z,69.34
2022-08-17T06:20:16.455Z,68.84
2022-08-17T06:20:55.068Z,68.72
2022-08-17T06:21:33.562Z,68.57
2022-08-17T06:22:09.093Z,68.68
2022-08-17T06:22:46.257Z,68.39
2022-08-17T06:23:26.315Z,68.60
2022-08-17T06:24:08.442Z,68.44
2022-08-17T06:24:44.890Z,68.30
2022-08-17T06:25:21.726Z,68.59
2022-08-17T06:26:01.482Z,68.49
2022-08-17T06:26:42.472Z,68.27
2022-08-17T06:27:25.198Z,68.59
2022-08-17T06:28:06.013Z,68.47
2022-08-17T06:28:44.428Z,68.17
2022-08-17T06:29:27.207Z,68.28
2022-08-17T06:30:09.676Z,68.14
2022-08-17T06:31:00.292Z,68.29
2022-08-17T06:31:38.657Z,68.16
2022-08-17T06:32:12.911Z,68.21
2022-08-17T06:32:48.640Z,68.24
2022-08-17T06:33:28.692Z,67.86
2022-08-17T06:34:03.534Z,67.85
2022-08-17T06:34:38.135Z,67.80
2022-08-17T06:35:15.393Z,67.98
2022-08-17T06:35:59.772Z,67.42
2022-08-17T06:36:51.368Z,67.28
2022-08-17T06:37:43.240Z,67.62
2022-08-17T06:38:37.666Z,67.14
2022-08-17T06:39:27.327Z,67.32
2022-08-17T06:40:17.282Z,67.08
2022-08-17T06:41:05.486Z,67.16
2022-08-17T06:41:49.578Z,67.17
2022-08-17T06:43:02.011Z,66.84
2022-08-17T06:43:59.670Z,66.85
2022-08-17T06:44:50.226Z,67.28
2022-08-17T06:45:31.350Z,67.10
2022-08-17T06:46:11.026Z,67.20
2022-08-17T06:46:48.756Z,67.22
2022-08-17T06:47:29.324Z,66.87
2022-08-17T06:48:10.165Z,67.02
2022-08-17T06:48:47.107Z,66.85
2022-08-17T06:49:27.012Z,66.93
2022-08-17T06:50:14.760Z,66.59
2022-08-17T06:50:51.473Z,66.48
2022-08-17T06:51:31.256Z,66.87
2022-08-17T06:52:42.242Z,66.70
2022-08-17T06:53:22.569Z,66.67
2022-08-17T06:54:02.907Z,67.07
2022-08-17T06:54:41.987Z,66.92
2022-08-17T06:55:20.335Z,67.06
2022-08-17T06:55:57.348Z,67.07
2022-08-17T06:56:53.222Z,66.94
2022-08-17T06:57:31.135Z,67.60
2022-08-17T06:58:15.792Z,67.22
2022-08-17T06:58:49.678Z,67.29
2022-08-17T06:59:54.363Z,67.83
2022-08-17T07:00:26.339Z,67.84
2022-08-17T07:01:06.702Z,68.30
2022-08-17T07:01:45.432Z,68.59
2022-08-17T07:02:29.036Z,68.34
2022-08-17T07:03:29.125Z,69.03
2022-08-17T07:04:12.096Z,68.61
2022-08-17T07:04:44.668Z,68.80
2022-08-17T07:05:23.316Z,68.89
2022-08-17T07:06:01.251Z,69.24
2022-08-17T07:06:41.315Z,68.92
2022-08-17T07:07:28.564Z,68.61
2022-08-17T07:08:07.522Z,68.61
2022-08-17T07:08:52.387Z,69.06
2022-08-17T07:09:31.228Z,69.20
2022-08-17T07:10:04.498Z,69.06
2022-08-17T07:10:44.608Z,68.83
2022-08-17T07:11:21.029Z,68.89
2022-08-17T07:11:57.177Z,69.02
2022-08-17T07:12:38.672Z,69.14
2022-08-17T07:13:29.634Z,68.74
2022-08-17T07:14:17.494Z,68.79
2022-08-17T07:14:56.475Z,69.39
2022-08-17T07:15:43.614Z,69.08
2022-08-17T07:16:19.768Z,69.05
2022-08-17T07:16:58.591Z,68.92
2022-08-17T07:17:47.058Z,69.10
2022-08-17T07:18:29.817Z,69.37
2022-08-17T07:19:02.225Z,68.99
2022-08-17T07:19:38.294Z,68.99
2022-08-17T07:20:16.033Z,69.19
2022-08-17T07:20:51.608Z,69.32
2022-08-17T07:21:40.986Z,69.50
2022-08-17T07:22:22.005Z,69.42
2022-08-17T07:23:04.479Z,69.15
2022-08-17T07:23:47.696Z,69.41
2022-08-17T07:24:35.783Z,69.45
2022-08-17T07:25:10.508Z,69.60
2022-08-17T07:25:49.456Z,69.36
2022-08-17T07:26:26.238Z,69.18
2022-08-17T07:27:11.629Z,69.25
2022-08-17T07:27:51.547Z,69.15
2022-08-17T07:28:24.609Z,68.42
2022-08-17T07:28:57.422Z,68.07
2022-08-17T07:29:34.422Z,67.88
2022-08-17T07:30:16.720Z,67.67
2022-08-17T07:30:56.418Z,67.53
2022-08-17T07:31:33.577Z,67.25
2022-08-17T07:32:06.059Z,67.26
2022-08-17T07:32:45.354Z,67.10
2022-08-17T07:33:21.075Z,66.59
2022-08-17T07:34:06.896Z,66.84
2022-08-17T07:35:10.681Z,66.44
2022-08-17T07:35:48.499Z,66.83
2022-08-17T07:36:29.545Z,66.41
2022-08-17T07:37:07.339Z,66.61
2022-08-17T07:37:41.106Z,66.43
2022-08-17T07:38:24.691Z,65.90
2022-08-17T07:38:58.777Z,66.17
2022-08-17T07:39:31.572Z,65.99
2022-08-17T07:40:19.929Z,65.12
2022-08-17T07:41:05.342Z,65.05
2022-08-17T07:41:57.360Z,65.17
2022-08-17T07:42:31.495Z,64.94
2022-08-17T07:43:12.532Z,64.64
2022-08-17T07:43:56.696Z,64.66
2022-08-17T07:44:29.135Z,64.43
2022-08-17T07:45:23.230Z,64.25
2022-08-17T07:46:31.964Z,64.70
2022-08-17T07:47:20.295Z,64.09
2022-08-17T07:48:07.570Z,64.20
2022-08-17T07:48:43.971Z,64.19
2022-08-17T07:49:38.433Z,64.70
2022-08-17T07:50:27.296Z,64.80
2022-08-17T07:51:00.328Z,64.46
2022-08-17T07:51:37.969Z,64.68
2022-08-17T07:52:47.963Z,64.42
2022-08-17T07:53:20.182Z,64.29
2022-08-17T07:53:54.238Z,64.49
2022-08-17T07:54:32.835Z,64.41
2022-08-17T07:55:26.714Z,64.41
2022-08-17T07:55:58.892Z,64.24
2022-08-17T07:56:41.119Z,64.08
2022-08-17T07:57:39.741Z,64.10
2022-08-17T07:58:17.224Z,63.67
2022-08-17T07:59:05.630Z,63.72
2022-08-17T07:59:43.880Z,63.77
2022-08-17T08:00:29.148Z,63.32
2022-08-17T08:01:18.464Z,63.08
2022-08-17T08:02:06.237Z,62.79
2022-08-17T08:02:45.541Z,62.88
2022-08-17T08:03:26.235Z,62.59
2022-08-17T08:03:59.233Z,62.48
2022-08-17T08:05:49.904Z,62.22
2022-08-17T08:06:27.630Z,62.56
2022-08-17T08:07:02.696Z,62.40
2022-08-17T08:07:38.625Z,62.38
2022-08-17T08:08:28.622Z,62.10
2022-08-17T08:09:01.925Z,62.35
2022-08-17T08:09:38.708Z,62.56
2022-08-17T08:10:16.953Z,62.27
2022-08-17T08:11:00.127Z,62.12
2022-08-17T08:11:41.235Z,62.31
2022-08-17T08:12:34.046Z,62.15